Time,TemperatureF,DewpointF,PressureIn,WindDirection,WindDirectionDegrees,WindSpeedMPH,WindSpeedGustMPH,Humidity,HourlyPrecipIn,Conditions,Clouds,dailyrainin,SolarRadiationWatts/m^2,SoftwareType,DateUTC
2014-02-01 00:05:00,45.0,39.0,30.04,SW,221,0.0,5.0,80,0.00,,,0.00,0,weatherlink.com 1.10,2014-02-01 06:05:00,
2014-02-01 00:20:00,47.1,40.0,30.03,South,183,0.0,3.0,75,0.00,,,0.00,0,weatherlink.com 1.10,2014-02-01 06:20:00,
2014-02-01 00:35:00,49.8,40.0,30.03,SSW,194,0.0,6.0,69,0.00,,,0.00,0,weatherlink.com 1.10,2014-02-01 06:35:00,
2014-02-01 00:50:00,50.8,39.0,30.04,SSE,168,0.0,5.0,64,0.00,,,0.00,0,weatherlink.com 1.10,2014-02-01 06:50:00,
2014-02-01 01:05:00,51.3,39.0,30.04,SSE,160,1.0,6.0,62,0.00,,,0.00,0,weatherlink.com 1.10,2014-02-01 07:05:00,
2014-02-01 01:20:00,51.1,38.0,30.04,South,171,0.0,4.0,61,0.00,,,0.00,0,weatherlink.com 1.10,2014-02-01 07:20:00,
2014-02-01 01:35:00,51.5,37.0,30.04,SSW,209,5.0,5.0,59,0.00,,,0.00,0,weatherlink.com 1.10,2014-02-01 07:35:00,
2014-02-01 01:50:00,51.4,37.0,30.04,SSE,160,0.0,6.0,58,0.00,,,0.00,0,weatherlink.com 1.10,2014-02-01 07:50:00,
2014-02-01 02:05:00,50.8,37.0,30.03,South,181,0.0,3.0,59,0.00,,,0.00,0,weatherlink.com 1.10,2014-02-01 08:05:00,
2014-02-01 02:20:00,51.3,36.0,30.03,South,173,0.0,5.0,57,0.00,,,0.00,0,weatherlink.com 1.10,2014-02-01 08:20:00,
2014-02-01 02:35:00,50.8,36.0,30.03,SSE,165,1.0,4.0,58,0.00,,,0.00,0,weatherlink.com 1.10,2014-02-01 08:35:00,
2014-02-01 02:50:00,51.1,36.0,30.02,SSW,208,0.0,5.0,57,0.00,,,0.00,0,weatherlink.com 1.10,2014-02-01 08:50:00,
2014-02-01 03:05:00,51.0,36.0,30.02,SSE,167,1.0,6.0,56,0.00,,,0.00,0,weatherlink.com 1.10,2014-02-01 09:05:00,
2014-02-01 03:20:00,50.5,35.0,30.02,SSW,192,2.0,5.0,56,0.00,,,0.00,0,weatherlink.com 1.10,2014-02-01 09:20:00,
2014-02-01 03:35:00,50.8,35.0,30.03,South,173,0.0,3.0,55,0.00,,,0.00,0,weatherlink.com 1.10,2014-02-01 09:35:00,
2014-02-01 03:50:00,50.6,34.0,30.03,South,188,0.0,3.0,54,0.00,,,0.00,0,weatherlink.com 1.10,2014-02-01 09:50:00,
2014-02-01 04:05:00,50.6,34.0,30.02,SSE,163,0.0,3.0,54,0.00,,,0.00,0,weatherlink.com 1.10,2014-02-01 10:05:00,
2014-02-01 04:20:00,50.5,34.0,30.02,SSE,148,2.0,4.0,53,0.00,,,0.00,0,weatherlink.com 1.10,2014-02-01 10:20:00,
2014-02-01 04:35:00,50.4,33.0,30.02,South,191,0.0,7.0,52,0.00,,,0.00,0,weatherlink.com 1.10,2014-02-01 10:35:00,
2014-02-01 04:50:00,50.5,33.0,30.02,SSE,154,3.0,5.0,52,0.00,,,0.00,0,weatherlink.com 1.10,2014-02-01 10:50:00,
2014-02-01 05:05:00,50.7,32.0,30.02,South,174,0.0,5.0,50,0.00,,,0.00,0,weatherlink.com 1.10,2014-02-01 11:05:00,
2014-02-01 05:20:00,50.5,32.0,30.03,SSW,192,0.0,8.0,50,0.00,,,0.00,0,weatherlink.com 1.10,2014-02-01 11:20:00,
2014-02-01 05:35:00,50.1,32.0,30.03,WSW,247,2.0,7.0,50,0.00,,,0.00,0,weatherlink.com 1.10,2014-02-01 11:35:00,
2014-02-01 05:50:00,50.3,31.0,30.03,SSE,157,1.0,6.0,48,0.00,,,0.00,0,weatherlink.com 1.10,2014-02-01 11:50:00,
2014-02-01 06:05:00,49.8,30.0,30.04,South,175,0.0,3.0,47,0.00,,,0.00,0,weatherlink.com 1.10,2014-02-01 12:05:00,
2014-02-01 06:20:00,49.7,29.0,30.04,SW,215,0.0,1.0,46,0.00,,,0.00,0,weatherlink.com 1.10,2014-02-01 12:20:00,
2014-02-01 06:35:00,49.6,29.0,30.04,South,179,0.0,2.0,46,0.00,,,0.00,0,weatherlink.com 1.10,2014-02-01 12:35:00,
2014-02-01 06:50:00,49.6,29.0,30.04,NNE,18,0.0,3.0,46,0.00,,,0.00,0,weatherlink.com 1.10,2014-02-01 12:50:00,
2014-02-01 07:05:00,49.6,30.0,30.03,SSW,208,0.0,2.0,47,0.00,,,0.00,5,weatherlink.com 1.10,2014-02-01 13:05:00,
2014-02-01 07:20:00,49.6,30.0,30.03,SSE,157,0.0,4.0,48,0.00,,,0.00,18,weatherlink.com 1.10,2014-02-01 13:20:00,
2014-02-01 07:35:00,50.2,30.0,30.03,SSE,163,0.0,8.0,47,0.00,,,0.00,19,weatherlink.com 1.10,2014-02-01 13:35:00,
2014-02-01 07:50:00,50.5,32.0,30.03,South,177,2.0,11.0,49,0.00,,,0.00,42,weatherlink.com 1.10,2014-02-01 13:50:00,
2014-02-01 08:05:00,51.2,32.0,30.02,SSW,194,1.0,10.0,48,0.00,,,0.00,70,weatherlink.com 1.10,2014-02-01 14:05:00,
2014-02-01 08:20:00,52.0,33.0,30.03,SSE,155,2.0,5.0,49,0.00,,,0.00,91,weatherlink.com 1.10,2014-02-01 14:20:00,
2014-02-01 08:35:00,52.6,34.0,30.03,SSW,192,1.0,5.0,49,0.00,,,0.00,107,weatherlink.com 1.10,2014-02-01 14:35:00,
2014-02-01 08:50:00,53.0,34.0,30.03,SW,225,2.0,4.0,48,0.00,,,0.00,104,weatherlink.com 1.10,2014-02-01 14:50:00,
2014-02-01 09:05:00,53.2,34.0,30.03,SSE,153,1.0,7.0,48,0.00,,,0.00,83,weatherlink.com 1.10,2014-02-01 15:05:00,
2014-02-01 09:20:00,53.0,34.0,30.03,SSE,162,0.0,5.0,49,0.00,,,0.00,69,weatherlink.com 1.10,2014-02-01 15:20:00,
2014-02-01 09:35:00,53.3,35.0,30.03,SSE,158,0.0,5.0,50,0.00,,,0.00,90,weatherlink.com 1.10,2014-02-01 15:35:00,
2014-02-01 09:51:00,54.0,36.0,30.03,South,181,1.0,7.0,51,0.00,,,0.00,153,weatherlink.com 1.10,2014-02-01 15:51:00,
2014-02-01 10:06:00,55.0,37.0,30.03,South,182,2.0,8.0,52,0.00,,,0.00,155,weatherlink.com 1.10,2014-02-01 16:06:00,
2014-02-01 10:21:00,55.3,39.0,30.04,SW,233,4.0,7.0,54,0.00,,,0.00,120,weatherlink.com 1.10,2014-02-01 16:21:00,
2014-02-01 10:36:00,56.0,40.0,30.02,SE,130,2.0,7.0,55,0.00,,,0.00,188,weatherlink.com 1.10,2014-02-01 16:36:00,
2014-02-01 10:51:00,56.3,41.0,30.03,South,169,2.0,5.0,56,0.00,,,0.00,183,weatherlink.com 1.10,2014-02-01 16:51:00,
2014-02-01 11:06:00,56.2,41.0,30.02,South,186,2.0,6.0,57,0.00,,,0.00,183,weatherlink.com 1.10,2014-02-01 17:06:00,
2014-02-01 11:21:00,56.7,41.0,30.01,SSE,167,0.0,6.0,57,0.00,,,0.00,236,weatherlink.com 1.10,2014-02-01 17:21:00,
2014-02-01 11:36:00,56.9,42.0,30.01,SSE,155,3.0,7.0,58,0.00,,,0.00,202,weatherlink.com 1.10,2014-02-01 17:36:00,
2014-02-01 11:51:00,57.6,42.0,30.01,South,180,2.0,5.0,57,0.00,,,0.00,213,weatherlink.com 1.10,2014-02-01 17:51:00,
2014-02-01 12:06:00,58.2,43.0,30.00,SSE,155,3.0,5.0,57,0.00,,,0.00,267,weatherlink.com 1.10,2014-02-01 18:06:00,
2014-02-01 12:21:00,58.6,43.0,29.99,South,190,0.0,9.0,56,0.00,,,0.00,188,weatherlink.com 1.10,2014-02-01 18:21:00,
2014-02-01 12:36:00,59.4,43.0,29.98,South,180,0.0,5.0,56,0.00,,,0.00,239,weatherlink.com 1.10,2014-02-01 18:36:00,
2014-02-01 12:51:00,60.5,45.0,29.97,ENE,76,2.0,9.0,56,0.00,,,0.00,237,weatherlink.com 1.10,2014-02-01 18:51:00,
2014-02-01 13:06:00,60.8,45.0,29.96,SSE,163,4.0,8.0,57,0.00,,,0.00,237,weatherlink.com 1.10,2014-02-01 19:06:00,
2014-02-01 13:21:00,62.3,46.0,29.95,South,178,2.0,6.0,56,0.00,,,0.00,454,weatherlink.com 1.10,2014-02-01 19:21:00,
2014-02-01 13:36:00,62.9,47.0,29.94,WSW,240,4.0,6.0,57,0.00,,,0.00,253,weatherlink.com 1.10,2014-02-01 19:36:00,
2014-02-01 13:51:00,63.6,47.0,29.94,South,173,2.0,7.0,56,0.00,,,0.00,246,weatherlink.com 1.10,2014-02-01 19:51:00,
2014-02-01 14:06:00,63.9,48.0,29.94,South,169,1.0,6.0,57,0.00,,,0.00,221,weatherlink.com 1.10,2014-02-01 20:06:00,
2014-02-01 14:21:00,64.6,49.0,29.93,SSE,168,2.0,5.0,57,0.00,,,0.00,251,weatherlink.com 1.10,2014-02-01 20:21:00,
2014-02-01 14:36:00,64.6,49.0,29.93,South,172,2.0,8.0,57,0.00,,,0.00,302,weatherlink.com 1.10,2014-02-01 20:36:00,
2014-02-01 14:51:00,64.3,49.0,29.93,SSE,158,9.0,9.0,59,0.00,,,0.00,202,weatherlink.com 1.10,2014-02-01 20:51:00,
2014-02-01 15:06:00,65.1,50.0,29.91,SSE,157,1.0,10.0,58,0.00,,,0.00,209,weatherlink.com 1.10,2014-02-01 21:06:00,
2014-02-01 15:21:00,65.6,51.0,29.92,South,174,2.0,13.0,59,0.00,,,0.00,116,weatherlink.com 1.10,2014-02-01 21:21:00,
2014-02-01 15:36:00,65.8,50.0,29.92,SSW,205,4.0,7.0,58,0.00,,,0.00,114,weatherlink.com 1.10,2014-02-01 21:36:00,
2014-02-01 15:51:00,65.6,51.0,29.93,SSW,207,1.0,3.0,59,0.00,,,0.00,98,weatherlink.com 1.10,2014-02-01 21:51:00,
2014-02-01 16:07:00,64.9,51.0,29.93,SSW,212,2.0,9.0,60,0.00,,,0.00,83,weatherlink.com 1.10,2014-02-01 22:07:00,
2014-02-01 16:21:00,64.5,51.0,29.93,South,172,1.0,3.0,61,0.00,,,0.00,67,weatherlink.com 1.10,2014-02-01 22:21:00,
2014-02-01 16:37:00,63.6,51.0,29.93,South,187,2.0,5.0,63,0.00,,,0.00,23,weatherlink.com 1.10,2014-02-01 22:37:00,
2014-02-01 16:52:00,62.2,51.0,29.93,SW,218,1.0,3.0,66,0.00,,,0.00,16,weatherlink.com 1.10,2014-02-01 22:52:00,
2014-02-01 17:07:00,62.1,51.0,29.93,South,176,1.0,5.0,66,0.00,,,0.00,5,weatherlink.com 1.10,2014-02-01 23:07:00,
2014-02-01 17:22:00,61.4,50.0,29.94,SSW,211,0.0,3.0,67,0.00,,,0.00,0,weatherlink.com 1.10,2014-02-01 23:22:00,
2014-02-01 17:37:00,61.1,50.0,29.93,South,173,2.0,3.0,68,0.00,,,0.00,0,weatherlink.com 1.10,2014-02-01 23:37:00,
2014-02-01 17:52:00,60.5,51.0,29.93,SSE,168,0.0,3.0,70,0.00,,,0.00,0,weatherlink.com 1.10,2014-02-01 23:52:00,
2014-02-01 18:07:00,59.8,50.0,29.94,South,170,0.0,3.0,71,0.00,,,0.00,0,weatherlink.com 1.10,2014-02-02 00:07:00,
2014-02-01 18:22:00,59.4,50.0,29.94,South,178,0.0,4.0,72,0.00,,,0.00,0,weatherlink.com 1.10,2014-02-02 00:22:00,
2014-02-01 18:37:00,59.3,50.0,29.95,South,171,0.0,3.0,72,0.00,,,0.00,0,weatherlink.com 1.10,2014-02-02 00:37:00,
2014-02-01 18:52:00,59.4,51.0,29.95,South,171,0.0,3.0,73,0.00,,,0.00,0,weatherlink.com 1.10,2014-02-02 00:52:00,
2014-02-01 19:07:00,58.6,50.0,29.96,WSW,245,1.0,2.0,73,0.00,,,0.00,0,weatherlink.com 1.10,2014-02-02 01:07:00,
2014-02-01 19:22:00,58.4,51.0,29.96,SW,235,0.0,0.0,76,0.00,,,0.00,0,weatherlink.com 1.10,2014-02-02 01:22:00,
2014-02-01 19:37:00,57.2,50.0,29.97,WSW,242,0.0,0.0,78,0.00,,,0.00,0,weatherlink.com 1.10,2014-02-02 01:37:00,
2014-02-01 19:52:00,57.5,50.0,29.97,WSW,242,0.0,1.0,77,0.00,,,0.00,0,weatherlink.com 1.10,2014-02-02 01:52:00,
2014-02-01 20:07:00,56.7,50.0,29.97,WSW,242,0.0,0.0,79,0.00,,,0.00,0,weatherlink.com 1.10,2014-02-02 02:07:00,
2014-02-01 20:22:00,56.9,50.0,29.96,WSW,242,0.0,0.0,78,0.00,,,0.00,0,weatherlink.com 1.10,2014-02-02 02:22:00,
2014-02-01 20:37:00,56.4,50.0,29.97,WSW,242,0.0,0.0,79,0.00,,,0.00,0,weatherlink.com 1.10,2014-02-02 02:37:00,
2014-02-01 20:52:00,56.5,50.0,29.97,WSW,242,0.0,0.0,79,0.00,,,0.00,0,weatherlink.com 1.10,2014-02-02 02:52:00,
2014-02-01 21:07:00,55.8,50.0,29.96,WSW,242,0.0,1.0,80,0.00,,,0.00,0,weatherlink.com 1.10,2014-02-02 03:07:00,
2014-02-01 21:22:00,54.7,49.0,29.97,WSW,242,0.0,0.0,80,0.00,,,0.00,0,weatherlink.com 1.10,2014-02-02 03:22:00,
2014-02-01 21:37:00,54.3,49.0,29.97,WSW,242,0.0,0.0,81,0.00,,,0.00,0,weatherlink.com 1.10,2014-02-02 03:37:00,
2014-02-01 21:52:00,52.5,49.0,29.97,WSW,242,0.0,0.0,86,0.01,,,0.01,0,weatherlink.com 1.10,2014-02-02 03:52:00,
2014-02-01 22:07:00,51.8,49.0,29.97,WSW,242,0.0,0.0,91,0.01,,,0.01,0,weatherlink.com 1.10,2014-02-02 04:07:00,
2014-02-01 22:22:00,51.7,50.0,29.96,WSW,242,0.0,0.0,94,0.01,,,0.01,0,weatherlink.com 1.10,2014-02-02 04:22:00,
2014-02-01 22:37:00,51.7,50.0,29.95,WSW,242,0.0,0.0,95,0.01,,,0.01,0,weatherlink.com 1.10,2014-02-02 04:37:00,
2014-02-01 22:52:00,51.7,50.0,29.95,WSW,242,0.0,0.0,95,0.00,,,0.01,0,weatherlink.com 1.10,2014-02-02 04:52:00,
2014-02-01 23:07:00,50.6,49.0,29.95,WSW,242,0.0,0.0,95,0.00,,,0.01,0,weatherlink.com 1.10,2014-02-02 05:07:00,
2014-02-01 23:22:00,50.5,49.0,29.95,WSW,242,0.0,0.0,96,0.00,,,0.01,0,weatherlink.com 1.10,2014-02-02 05:22:00,
2014-02-01 23:37:00,50.5,49.0,29.96,WSW,242,0.0,0.0,96,0.00,,,0.01,0,weatherlink.com 1.10,2014-02-02 05:37:00,
2014-02-01 23:52:00,50.3,49.0,29.95,WSW,242,0.0,0.0,96,0.01,,,0.02,0,weatherlink.com 1.10,2014-02-02 05:52:00,